.
WxDataArchive / Data Records for 2012-08-31
2012-08-30 August 2012 2012-09-01

Data Records for Friday, 31 August 2012

Time	Temp	Chill	HIndex	Humid	Dewpt	 Wind 	HiWind	WindDir	Rain 	Barom 
-----	----	-----	------	-----	-----	------	------	-------	-----	----- 
00:00	65.6	65.6	65.6	77	58.2	0	0	---	0.00	30.015 
00:05	65.3	65.3	65.3	77	57.9	0	0	---	0.00	30.015 
00:10	65.0	65.0	65.0	78	58.0	0	0	---	0.00	30.015 
00:15	64.8	64.8	64.8	79	58.1	0	0	---	0.00	30.014 
00:20	64.5	64.5	64.5	79	57.8	0	0	---	0.00	30.014 
00:25	64.2	64.2	64.2	80	57.9	0	0	---	0.00	30.014 
00:30	64.0	64.0	64.0	80	57.7	0	0	---	0.00	30.014 
00:35	63.7	63.7	63.7	81	57.8	0	0	---	0.00	30.014 
00:40	63.5	63.5	63.5	81	57.6	0	0	---	0.00	30.014 
00:45	63.4	63.4	63.4	81	57.5	0	0	---	0.00	30.016 
00:50	63.2	63.2	63.2	82	57.6	0	0	---	0.00	30.016 
00:55	62.9	62.9	62.9	82	57.3	0	0	---	0.00	30.016 
01:00	62.7	62.7	62.7	83	57.5	0	0	---	0.00	30.017 
01:05	62.6	62.6	62.6	84	57.7	0	0	---	0.00	30.017 
01:10	62.4	62.4	62.4	84	57.5	0	0	---	0.00	30.017 
01:15	62.1	62.1	62.1	84	57.2	0	0	---	0.00	30.017 
01:20	62.0	62.0	62.0	85	57.4	0	0	---	0.00	30.017 
01:25	61.8	61.8	61.8	85	57.2	0	0	---	0.00	30.017 
01:30	61.6	61.6	61.6	86	57.4	0	0	---	0.00	30.016 
01:35	61.6	61.6	61.6	86	57.4	0	0	---	0.00	30.016 
01:40	61.5	61.5	61.5	86	57.3	0	0	---	0.00	30.016 
01:45	61.3	61.3	61.3	86	57.1	0	0	---	0.00	30.015 
01:50	61.2	61.2	61.2	86	57.0	0	0	---	0.00	30.015 
01:55	61.0	61.0	61.0	87	57.1	0	0	---	0.00	30.015 
02:00	60.9	60.9	60.9	87	57.0	0	0	---	0.00	30.017 
02:05	60.7	60.7	60.7	87	56.8	0	0	---	0.00	30.017 
02:10	60.5	60.5	60.5	87	56.6	0	0	---	0.00	30.017 
02:15	60.4	60.4	60.4	87	56.5	0	0	---	0.00	30.025 
02:20	60.2	60.2	60.2	87	56.3	0	0	---	0.00	30.025 
02:25	60.1	60.1	60.1	87	56.2	0	0	---	0.00	30.025 
02:30	60.1	60.1	60.1	88	56.5	0	0	---	0.00	30.026 
02:35	59.9	59.9	59.9	88	56.3	0	0	---	0.00	30.026 
02:40	59.8	59.8	59.8	88	56.2	0	0	---	0.00	30.026 
02:45	59.6	59.6	59.6	88	56.0	0	0	---	0.00	30.025 
02:50	59.6	59.6	59.6	88	56.0	0	0	---	0.00	30.025 
02:55	59.5	59.5	59.5	88	55.9	0	0	---	0.00	30.025 
03:00	59.5	59.5	59.5	88	55.9	0	0	---	0.00	30.025 
03:05	59.3	59.3	59.3	88	55.7	0	0	---	0.00	30.025 
03:10	59.3	59.3	59.3	88	55.7	0	0	---	0.00	30.025 
03:15	59.3	59.3	59.3	88	55.7	0	0	---	0.00	30.018 
03:20	59.2	59.2	59.2	88	55.6	0	0	---	0.00	30.018 
03:25	59.2	59.2	59.2	89	56.0	0	0	---	0.00	30.018 
03:30	59.2	59.2	59.2	89	56.0	0	0	---	0.00	30.023 
03:35	59.0	59.0	59.0	89	55.8	0	0	---	0.00	30.023 
03:40	59.0	59.0	59.0	89	55.8	0	0	---	0.00	30.023 
03:45	58.9	58.9	58.9	89	55.7	0	0	---	0.00	30.020 
03:50	58.9	58.9	58.9	89	55.7	0	0	---	0.00	30.020 
03:55	58.7	58.7	58.7	89	55.5	0	0	---	0.00	30.020 
04:00	58.7	58.7	58.7	89	55.5	0	0	---	0.00	30.023 
04:05	58.6	58.6	58.6	90	55.7	0	0	---	0.00	30.023 
04:10	58.6	58.6	58.6	90	55.7	0	0	---	0.00	30.023 
04:15	58.4	58.4	58.4	90	55.5	0	0	---	0.00	30.027 
04:20	58.3	58.3	58.3	90	55.4	0	0	---	0.00	30.027 
04:25	58.3	58.3	58.3	90	55.4	0	0	---	0.00	30.027 
04:30	58.3	58.3	58.3	90	55.4	0	0	---	0.00	30.027 
04:35	58.1	58.1	58.1	90	55.2	0	0	---	0.00	30.027 
04:40	58.1	58.1	58.1	90	55.2	0	0	---	0.00	30.027 
04:45	58.1	58.1	58.1	90	55.2	0	0	---	0.00	30.028 
04:50	58.0	58.0	58.0	90	55.1	0	0	---	0.00	30.028 
04:55	58.0	58.0	58.0	90	55.1	0	0	---	0.00	30.028 
05:00	57.8	57.8	57.8	91	55.2	0	0	---	0.00	30.025 
05:05	57.8	57.8	57.8	91	55.2	0	0	---	0.00	30.025 
05:10	57.8	57.8	57.8	91	55.2	0	0	---	0.00	30.025 
05:15	57.6	57.6	57.6	91	55.0	0	0	---	0.00	30.027 
05:20	57.6	57.6	57.6	91	55.0	0	0	---	0.00	30.027 
05:25	57.6	57.6	57.6	91	55.0	0	0	---	0.00	30.027 
05:30	57.6	57.6	57.6	91	55.0	0	0	---	0.00	30.024 
05:35	57.6	57.6	57.6	91	55.0	0	0	---	0.00	30.024 
05:40	57.6	57.6	57.6	91	55.0	0	0	---	0.00	30.024 
05:45	58.0	58.0	58.0	91	55.4	0	0	---	0.00	30.023 
05:50	58.1	58.1	58.1	91	55.5	0	0	---	0.00	30.023 
05:55	58.1	58.1	58.1	91	55.5	0	0	---	0.00	30.023 
06:00	58.1	58.1	58.1	91	55.5	0	0	---	0.00	30.031 
06:05	58.1	58.1	58.1	91	55.5	0	0	---	0.00	30.031 
06:10	58.1	58.1	58.1	91	55.5	0	0	---	0.00	30.031 
06:15	58.1	58.1	58.1	91	55.5	0	0	---	0.00	30.033 
06:20	58.1	58.1	58.1	91	55.5	0	0	---	0.00	30.033 
06:25	58.4	58.4	58.4	91	55.8	0	0	---	0.00	30.033 
06:30	58.6	58.6	58.6	91	56.0	0	0	---	0.00	30.033 
06:35	58.7	58.7	58.7	90	55.8	0	0	---	0.00	30.033 
06:40	58.9	58.9	58.9	90	56.0	0	0	---	0.00	30.033 
06:45	59.0	59.0	59.0	89	55.8	0	0	---	0.00	30.035 
06:50	59.2	59.2	59.2	89	56.0	0	0	---	0.00	30.035 
06:55	59.5	59.5	59.5	88	55.9	0	0	---	0.00	30.035 
07:00	59.8	59.8	59.8	88	56.2	0	0	---	0.00	30.042 
07:05	60.2	60.2	60.2	87	56.3	0	0	---	0.00	30.042 
07:10	60.7	60.7	60.7	86	56.5	0	0	---	0.00	30.042 
07:15	61.2	61.2	61.2	85	56.6	0	0	---	0.00	30.050 
07:20	61.8	61.8	61.8	84	56.9	0	1	112	0.00	30.050 
07:25	62.6	62.6	62.6	83	57.4	0	2	112	0.00	30.050 
07:30	63.2	63.2	63.2	81	57.3	0	1	135	0.00	30.054 
07:35	63.7	63.7	63.7	81	57.8	0	1	135	0.00	30.054 
07:40	63.9	63.9	63.9	80	57.6	0	1	135	0.00	30.054 
07:45	64.2	64.2	64.2	80	57.9	0	1	135	0.00	30.060 
07:50	64.7	64.7	64.7	79	58.0	0	1	135	0.00	30.060 
07:55	65.2	65.2	65.2	79	58.5	0	1	135	0.00	30.060 
08:00	65.8	65.8	65.8	78	58.7	0	1	135	0.00	30.060 
08:05	66.4	66.4	66.4	78	59.3	0	2	135	0.00	30.060 
08:10	67.1	67.1	67.1	78	60.0	0	1	158	0.00	30.060 
08:15	67.8	67.8	67.8	77	60.3	0	2	158	0.00	30.067 
08:20	68.4	68.4	68.4	77	60.9	1	3	248	0.00	30.067 
08:25	68.9	68.9	68.9	76	61.0	0	3	248	0.00	30.067 
08:30	69.4	69.4	69.4	76	61.5	1	3	248	0.00	30.069 
08:35	69.8	69.8	69.8	76	61.9	1	3	248	0.00	30.069 
08:40	70.1	70.1	70.1	76	62.2	0	2	248	0.00	30.069 
08:45	70.4	70.4	70.4	77	62.8	1	4	292	0.00	30.074 
08:50	70.8	70.8	70.8	77	63.2	1	3	292	0.00	30.074 
08:55	71.1	71.1	71.1	77	63.5	1	3	292	0.00	30.074 
09:00	71.6	71.6	71.6	77	64.0	1	3	292	0.00	30.074 
09:05	72.0	72.0	72.0	77	64.4	1	4	292	0.00	30.074 
09:10	72.3	72.3	72.3	77	64.7	1	5	248	0.00	30.074 
09:15	72.7	72.7	72.7	77	65.1	1	4	248	0.00	30.078 
09:20	73.2	73.2	73.2	77	65.5	1	3	248	0.00	30.078 
09:25	73.5	73.5	73.5	77	65.8	1	3	248	0.00	30.078 
09:30	74.0	74.0	74.0	76	65.9	2	5	315	0.00	30.079 
09:35	74.4	74.4	74.4	76	66.3	1	3	292	0.00	30.079 
09:40	74.9	74.9	74.9	76	66.8	1	3	292	0.00	30.079 
09:45	75.3	75.3	76.5	75	66.8	2	4	270	0.00	30.079 
09:50	75.6	75.6	76.9	75	67.1	1	3	270	0.00	30.079 
09:55	76.1	76.1	77.5	74	67.2	1	4	270	0.00	30.079 
10:00	76.7	76.7	78.3	74	67.8	1	3	248	0.00	30.076 
10:05	77.2	77.2	79.0	73	67.9	2	4	270	0.00	30.076 
10:10	77.7	77.7	79.7	73	68.3	1	3	248	0.00	30.076 
10:15	78.3	78.3	80.5	72	68.5	1	3	248	0.00	30.080 
10:20	79.0	79.0	81.4	70	68.4	1	4	248	0.00	30.080 
10:25	79.6	79.6	82.3	70	68.9	1	5	248	0.00	30.080 
10:30	80.1	80.1	83.0	69	69.0	2	4	270	0.00	30.078 
10:35	80.7	80.7	83.8	68	69.1	2	4	270	0.00	30.078 
10:40	81.2	81.2	84.3	66	68.7	3	6	248	0.00	30.078 
10:45	81.6	81.6	84.9	66	69.1	2	5	270	0.00	30.076 
10:50	82.2	82.2	85.7	65	69.2	2	6	270	0.00	30.076 
10:55	82.6	82.6	86.4	65	69.6	2	4	270	0.00	30.076 
11:00	83.0	83.0	86.9	64	69.5	2	4	248	0.00	30.076 
11:05	83.2	83.2	86.7	62	68.8	3	7	270	0.00	30.076 
11:10	83.4	83.4	87.0	62	69.0	3	5	270	0.00	30.076 
11:15	83.6	83.6	87.4	62	69.2	2	5	270	0.00	30.073 
11:20	84.1	84.1	88.0	61	69.2	1	4	248	0.00	30.073 
11:25	84.3	84.3	87.8	59	68.4	3	6	248	0.00	30.073 
11:30	84.5	84.5	88.4	60	69.1	3	5	270	0.00	30.073 
11:35	84.7	84.7	88.4	59	68.8	2	5	270	0.00	30.073 
11:40	84.9	84.9	88.8	59	68.9	2	6	270	0.00	30.073 
11:45	85.3	85.3	89.5	59	69.3	2	5	292	0.00	30.073 
11:50	85.9	85.9	90.2	58	69.4	2	4	248	0.00	30.073 
11:55	86.3	86.3	90.2	56	68.7	2	5	292	0.00	30.073 
12:00	86.5	86.5	91.0	57	69.4	2	4	270	0.00	30.068 
12:05	86.5	86.5	90.6	56	68.9	2	7	270	0.00	30.068 
12:10	86.7	86.7	91.0	56	69.1	3	5	248	0.00	30.068 
12:15	87.0	87.0	91.5	56	69.4	3	6	270	0.00	30.069 
12:20	87.2	87.2	91.9	56	69.6	2	5	292	0.00	30.069 
12:25	87.4	87.4	92.2	56	69.7	2	5	292	0.00	30.069 
12:30	88.0	88.0	92.6	54	69.2	1	4	270	0.00	30.069 
12:35	88.0	88.0	92.6	54	69.2	3	5	270	0.00	30.069 
12:40	88.0	88.0	92.2	53	68.7	2	5	248	0.00	30.069 
12:45	88.0	88.0	92.6	54	69.2	3	7	270	0.00	30.064 
12:50	88.2	88.2	92.9	54	69.4	2	4	270	0.00	30.064 
12:55	88.6	88.6	93.7	54	69.8	2	4	270	0.00	30.064 
13:00	88.6	88.6	93.3	53	69.2	3	6	270	0.00	30.058 
13:05	88.8	88.8	92.8	51	68.3	2	6	270	0.00	30.058 
13:10	88.8	88.8	92.4	50	67.7	3	6	248	0.00	30.058 
13:15	88.8	88.8	93.2	52	68.9	3	5	270	0.00	30.057 
13:20	89.0	89.0	93.6	52	69.0	3	5	315	0.00	30.057 
13:25	89.7	89.7	94.5	51	69.1	1	5	270	0.00	30.057 
13:30	90.1	90.1	94.8	50	68.9	2	5	270	0.00	30.057 
13:35	90.3	90.3	94.7	49	68.5	2	5	248	0.00	30.057 
13:40	90.3	90.3	94.3	48	67.9	3	6	270	0.00	30.057 
13:45	90.3	90.3	94.7	49	68.5	2	5	248	0.00	30.055 
13:50	90.5	90.5	95.5	50	69.3	2	4	225	0.00	30.055 
13:55	90.7	90.7	95.0	48	68.3	2	5	270	0.00	30.055 
14:00	90.7	90.7	95.0	48	68.3	2	6	270	0.00	30.052 
14:05	91.0	91.0	96.0	49	69.1	2	4	248	0.00	30.052 
14:10	91.2	91.2	95.0	46	67.5	3	7	292	0.00	30.052 
14:15	91.0	91.0	95.1	47	67.9	2	5	270	0.00	30.049 
14:20	90.7	90.7	94.1	46	67.0	4	7	270	0.00	30.049 
14:25	90.7	90.7	93.7	45	66.4	2	6	270	0.00	30.049 
14:30	91.0	91.0	93.8	44	66.0	2	5	292	0.00	30.042 
14:35	91.2	91.2	94.5	45	66.8	2	6	270	0.00	30.042 
14:40	91.4	91.4	95.4	46	67.7	3	5	270	0.00	30.042 
14:45	91.6	91.6	95.3	45	67.2	2	5	248	0.00	30.040 
14:50	92.1	92.1	96.7	46	68.3	1	5	292	0.00	30.040 
14:55	91.6	91.6	95.3	45	67.2	3	6	270	0.00	30.040 
15:00	91.0	91.0	95.1	47	67.9	2	4	270	0.00	30.040 
15:05	90.5	90.5	94.6	48	68.1	1	4	248	0.00	30.040 
15:10	90.3	90.3	94.7	49	68.5	2	7	292	0.00	30.040 
15:15	90.7	90.7	95.9	50	69.5	1	4	292	0.00	30.027 
15:20	90.7	90.7	95.5	49	68.9	2	5	292	0.00	30.027 
15:25	91.0	91.0	96.5	50	69.7	2	4	270	0.00	30.027 
15:30	91.0	91.0	96.0	49	69.1	2	7	248	0.00	30.023 
15:35	91.0	91.0	96.5	50	69.7	1	4	270	0.00	30.023 
15:40	91.0	91.0	96.5	50	69.7	1	4	292	0.00	30.023 
15:45	91.2	91.2	96.9	50	69.9	2	5	315	0.00	30.023 
15:50	91.0	91.0	96.0	49	69.1	3	5	270	0.00	30.023 
15:55	91.2	91.2	95.9	48	68.7	3	7	270	0.00	30.023 
16:00	91.2	91.2	95.9	48	68.7	2	6	270	0.00	30.017 
16:05	91.6	91.6	96.2	47	68.5	2	5	270	0.00	30.017 
16:10	91.6	91.6	96.2	47	68.5	1	3	270	0.00	30.017 
16:15	91.4	91.4	95.8	47	68.3	2	5	270	0.00	30.019 
16:20	91.0	91.0	95.1	47	67.9	2	4	248	0.00	30.019 
16:25	90.5	90.5	95.1	49	68.7	1	6	270	0.00	30.019 
16:30	90.3	90.3	94.7	49	68.5	2	4	270	0.00	30.016 
16:35	90.3	90.3	95.2	50	69.1	1	3	270	0.00	30.016 
16:40	90.3	90.3	95.6	51	69.7	1	4	225	0.00	30.016 
16:45	90.1	90.1	94.8	50	68.9	1	4	270	0.00	30.017 
16:50	90.3	90.3	94.7	49	68.5	3	5	292	0.00	30.017 
16:55	90.3	90.3	95.2	50	69.1	2	4	270	0.00	30.017 
17:00	90.1	90.1	94.8	50	68.9	2	5	270	0.00	30.010 
17:05	89.7	89.7	94.5	51	69.1	1	3	270	0.00	30.010 
17:10	89.5	89.5	94.1	51	68.9	2	5	270	0.00	30.010 
17:15	89.3	89.3	93.7	51	68.8	2	5	248	0.00	30.014 
17:20	89.0	89.0	93.2	51	68.5	2	5	248	0.00	30.014 
17:25	88.8	88.8	92.4	50	67.7	2	5	270	0.00	30.014 
17:30	88.6	88.6	93.7	54	69.8	2	4	270	0.00	30.013 
17:35	88.2	88.2	94.2	57	71.0	1	4	0	0.00	30.013 
17:40	87.4	87.4	93.0	58	70.8	1	3	270	0.00	30.013 
17:45	87.0	87.0	92.7	59	70.9	1	4	248	0.00	30.013 
17:50	86.5	86.5	91.7	59	70.4	1	3	315	0.00	30.013 
17:55	86.5	86.5	92.1	60	70.9	1	5	270	0.00	30.013 
18:00	86.3	86.3	91.7	60	70.7	1	3	270	0.00	30.013 
18:05	86.3	86.3	91.7	60	70.7	1	2	270	0.00	30.013 
18:10	86.1	86.1	90.9	59	70.1	1	3	248	0.00	30.013 
18:15	86.1	86.1	90.9	59	70.1	1	4	248	0.00	30.011 
18:20	85.9	85.9	90.6	59	69.9	1	3	248	0.00	30.011 
18:25	85.7	85.7	90.2	59	69.7	1	3	248	0.00	30.011 
18:30	85.7	85.7	90.5	60	70.2	0	3	248	0.00	30.011 
18:35	85.7	85.7	90.5	60	70.2	0	2	248	0.00	30.011 
18:40	85.5	85.5	90.5	61	70.5	0	1	248	0.00	30.011 
18:45	85.5	85.5	90.2	60	70.0	1	3	248	0.00	30.011 
18:50	85.3	85.3	89.8	60	69.8	1	2	248	0.00	30.011 
18:55	85.3	85.3	89.5	59	69.3	0	1	248	0.00	30.011 
19:00	85.1	85.1	88.8	58	68.6	0	2	248	0.00	30.011 
19:05	84.9	84.9	88.5	58	68.4	1	4	248	0.00	30.011 
19:10	84.9	84.9	88.5	58	68.4	0	2	248	0.00	30.011 
19:15	84.7	84.7	88.4	59	68.8	0	2	248	0.00	30.006 
19:20	84.5	84.5	88.1	59	68.6	0	2	248	0.00	30.006 
19:25	84.5	84.5	88.1	59	68.6	1	2	248	0.00	30.006 
19:30	84.3	84.3	88.0	60	68.9	0	2	248	0.00	30.008 
19:35	84.1	84.1	87.7	60	68.7	0	1	248	0.00	30.008 
19:40	84.1	84.1	87.7	60	68.7	0	1	248	0.00	30.008 
19:45	83.8	83.8	87.5	61	68.9	0	2	248	0.00	30.005 
19:50	83.8	83.8	87.5	61	68.9	0	2	248	0.00	30.005 
19:55	83.6	83.6	87.1	61	68.7	1	3	248	0.00	30.005 
20:00	83.4	83.4	87.0	62	69.0	0	1	248	0.00	30.009 
20:05	83.4	83.4	87.0	62	69.0	0	0	---	0.00	30.009 
20:10	83.0	83.0	86.4	62	68.6	0	2	248	0.00	30.009 
20:15	83.0	83.0	86.4	62	68.6	0	1	248	0.00	30.006 
20:20	82.8	82.8	86.1	62	68.4	0	1	248	0.00	30.006 
20:25	82.8	82.8	86.1	62	68.4	0	1	248	0.00	30.006 
20:30	82.6	82.6	85.9	63	68.7	0	1	248	0.00	30.012 
20:35	82.4	82.4	85.6	63	68.5	0	1	248	0.00	30.012 
20:40	82.2	82.2	85.5	64	68.8	0	1	248	0.00	30.012 
20:45	82.0	82.0	85.2	64	68.6	0	1	248	0.00	30.018 
20:50	81.8	81.8	85.1	65	68.9	0	0	---	0.00	30.018 
20:55	81.6	81.6	84.7	65	68.7	0	0	---	0.00	30.018 
21:00	81.4	81.4	84.6	66	68.9	0	0	---	0.00	30.019 
21:05	81.2	81.2	84.3	66	68.7	0	1	248	0.00	30.019 
21:10	81.1	81.1	84.3	67	69.1	0	1	248	0.00	30.019 
21:15	81.1	81.1	84.5	68	69.5	0	0	---	0.00	30.018 
21:20	80.7	80.7	84.0	69	69.6	0	1	248	0.00	30.018 
21:25	80.7	80.7	84.1	70	70.0	0	1	248	0.00	30.018 
21:30	80.5	80.5	83.8	70	69.8	0	1	248	0.00	30.019 
21:35	80.3	80.3	83.6	71	70.0	0	0	---	0.00	30.019 
21:40	80.1	80.1	83.4	72	70.2	0	0	---	0.00	30.019 
21:45	79.9	79.9	83.1	73	70.4	0	1	248	0.00	30.025 
21:50	79.9	79.9	83.1	73	70.4	0	1	248	0.00	30.025 
21:55	79.8	79.8	83.0	73	70.4	0	0	---	0.00	30.025 
22:00	79.8	79.8	83.0	73	70.4	0	1	248	0.00	30.024 
22:05	79.6	79.6	82.7	74	70.6	0	0	---	0.00	30.024 
22:10	79.6	79.6	82.7	74	70.6	0	0	---	0.00	30.024 
22:15	79.4	79.4	82.4	74	70.4	0	0	---	0.00	30.022 
22:20	79.4	79.4	82.4	74	70.4	0	0	---	0.00	30.022 
22:25	79.2	79.2	82.1	75	70.6	0	0	---	0.00	30.022 
22:30	79.0	79.0	81.8	75	70.4	0	0	---	0.00	30.021 
22:35	79.0	79.0	81.8	75	70.4	0	0	---	0.00	30.021 
22:40	78.8	78.8	81.5	76	70.6	0	0	---	0.00	30.021 
22:45	78.6	78.6	81.2	76	70.4	0	0	---	0.00	30.021 
22:50	78.5	78.5	81.1	77	70.7	0	0	---	0.00	30.021 
22:55	78.1	78.1	80.4	77	70.3	0	0	---	0.00	30.021 
23:00	77.9	77.9	80.1	78	70.5	0	0	---	0.00	30.026 
23:05	77.7	77.7	79.7	78	70.3	0	0	---	0.00	30.026 
23:10	77.6	77.6	79.6	79	70.6	0	0	---	0.00	30.026 
23:15	77.4	77.4	79.3	79	70.4	0	0	---	0.00	30.026 
23:20	77.4	77.4	79.2	80	70.7	0	0	---	0.00	30.026 
23:25	77.2	77.2	78.9	80	70.5	0	0	---	0.00	30.026 
23:30	77.2	77.2	78.9	80	70.5	0	0	---	0.00	30.026 
23:35	77.2	77.2	78.9	81	70.9	0	0	---	0.00	30.026 
23:40	77.2	77.2	78.9	81	70.9	0	0	---	0.00	30.026 
23:45	77.2	77.2	78.9	81	70.9	0	0	---	0.00	30.029 
23:50	77.0	77.0	78.5	81	70.7	0	0	---	0.00	30.029 
23:55	77.0	77.0	78.5	81	70.7	0	0	---	0.00	30.029 

CoCoRaHS
IN-AL-39
A2 Web Hosting
Creative Commons License
GoDaddy
search engine by freefind advanced

loaded 2018-11-13 21:57:22 • last modified 2010-11-18 10:43:29
Privacy PolicyDisclaimer
• wx.awcolley.com is powered by PmWiki v.2002016 •
• all content (unless otherwise noted) © 2018 A W Colley